sensor_id;sensor_type;location;lat;lon;timestamp;temperature;humidity
26655;DHT22;14278;50.784;4.630;2023-02-04T00:00:20;10.40;99.90
26655;DHT22;14278;50.784;4.630;2023-02-04T00:02:46;10.40;99.90
26655;DHT22;14278;50.784;4.630;2023-02-04T00:05:12;10.60;99.90
26655;DHT22;14278;50.784;4.630;2023-02-04T00:07:38;10.70;99.90
26655;DHT22;14278;50.784;4.630;2023-02-04T00:10:06;10.60;99.90
26655;DHT22;14278;50.784;4.630;2023-02-04T00:12:33;10.70;99.90
26655;DHT22;14278;50.784;4.630;2023-02-04T00:14:59;10.70;99.90
26655;DHT22;14278;50.784;4.630;2023-02-04T00:17:25;10.70;99.90
26655;DHT22;14278;50.784;4.630;2023-02-04T00:19:51;10.70;99.90
26655;DHT22;14278;50.784;4.630;2023-02-04T00:22:17;10.70;99.90
26655;DHT22;14278;50.784;4.630;2023-02-04T00:24:43;10.90;99.90
26655;DHT22;14278;50.784;4.630;2023-02-04T00:27:14;11.00;99.90
26655;DHT22;14278;50.784;4.630;2023-02-04T00:29:40;11.10;99.90
26655;DHT22;14278;50.784;4.630;2023-02-04T00:32:05;10.90;99.90
26655;DHT22;14278;50.784;4.630;2023-02-04T00:34:31;10.70;99.90
26655;DHT22;14278;50.784;4.630;2023-02-04T00:36:58;10.70;99.90
26655;DHT22;14278;50.784;4.630;2023-02-04T00:39:23;11.00;99.90
26655;DHT22;14278;50.784;4.630;2023-02-04T00:41:49;10.90;99.90
26655;DHT22;14278;50.784;4.630;2023-02-04T00:44:15;10.90;99.90
26655;DHT22;14278;50.784;4.630;2023-02-04T00:46:41;11.20;99.90
26655;DHT22;14278;50.784;4.630;2023-02-04T00:49:08;11.00;99.90
26655;DHT22;14278;50.784;4.630;2023-02-04T00:51:36;10.70;99.90
26655;DHT22;14278;50.784;4.630;2023-02-04T00:54:03;10.90;99.90
26655;DHT22;14278;50.784;4.630;2023-02-04T00:56:29;10.80;99.90
26655;DHT22;14278;50.784;4.630;2023-02-04T00:58:55;10.90;99.90
26655;DHT22;14278;50.784;4.630;2023-02-04T01:01:21;10.90;99.90
26655;DHT22;14278;50.784;4.630;2023-02-04T01:03:47;10.90;99.90
26655;DHT22;14278;50.784;4.630;2023-02-04T01:06:12;11.00;99.90
26655;DHT22;14278;50.784;4.630;2023-02-04T01:08:38;10.80;99.90
26655;DHT22;14278;50.784;4.630;2023-02-04T01:11:04;11.00;99.90
26655;DHT22;14278;50.784;4.630;2023-02-04T01:13:30;10.70;99.90
26655;DHT22;14278;50.784;4.630;2023-02-04T01:15:56;10.90;99.90
26655;DHT22;14278;50.784;4.630;2023-02-04T01:18:22;11.00;99.90
26655;DHT22;14278;50.784;4.630;2023-02-04T01:20:48;11.10;99.90
26655;DHT22;14278;50.784;4.630;2023-02-04T01:23:16;10.90;99.90
26655;DHT22;14278;50.784;4.630;2023-02-04T01:25:42;11.00;99.90
26655;DHT22;14278;50.784;4.630;2023-02-04T01:28:08;11.10;99.90
26655;DHT22;14278;50.784;4.630;2023-02-04T01:30:34;10.90;99.90
26655;DHT22;14278;50.784;4.630;2023-02-04T01:33:00;11.00;99.90
26655;DHT22;14278;50.784;4.630;2023-02-04T01:35:26;10.80;99.90
26655;DHT22;14278;50.784;4.630;2023-02-04T01:37:52;10.90;99.90
26655;DHT22;14278;50.784;4.630;2023-02-04T01:40:18;10.90;99.90
26655;DHT22;14278;50.784;4.630;2023-02-04T01:42:44;11.30;99.90
26655;DHT22;14278;50.784;4.630;2023-02-04T01:45:10;11.20;99.90
26655;DHT22;14278;50.784;4.630;2023-02-04T01:47:36;11.00;99.90
26655;DHT22;14278;50.784;4.630;2023-02-04T01:50:03;11.10;99.90
26655;DHT22;14278;50.784;4.630;2023-02-04T01:52:34;11.40;99.90
26655;DHT22;14278;50.784;4.630;2023-02-04T01:55:01;11.60;99.90
26655;DHT22;14278;50.784;4.630;2023-02-04T01:57:27;11.60;99.90
26655;DHT22;14278;50.784;4.630;2023-02-04T01:59:55;11.60;99.90
26655;DHT22;14278;50.784;4.630;2023-02-04T02:02:41;11.60;99.90
26655;DHT22;14278;50.784;4.630;2023-02-04T02:05:10;11.30;99.90
26655;DHT22;14278;50.784;4.630;2023-02-04T02:07:37;11.40;99.90
26655;DHT22;14278;50.784;4.630;2023-02-04T02:10:06;11.50;99.90
26655;DHT22;14278;50.784;4.630;2023-02-04T02:12:32;11.40;99.90
26655;DHT22;14278;50.784;4.630;2023-02-04T02:14:59;11.20;99.90
26655;DHT22;14278;50.784;4.630;2023-02-04T02:17:25;11.30;99.90
26655;DHT22;14278;50.784;4.630;2023-02-04T02:19:51;11.40;99.90
26655;DHT22;14278;50.784;4.630;2023-02-04T02:22:33;11.70;99.90
26655;DHT22;14278;50.784;4.630;2023-02-04T02:25:06;11.70;99.90
26655;DHT22;14278;50.784;4.630;2023-02-04T02:27:32;11.50;99.90
26655;DHT22;14278;50.784;4.630;2023-02-04T02:29:58;11.20;99.90
26655;DHT22;14278;50.784;4.630;2023-02-04T02:32:24;11.40;99.90
26655;DHT22;14278;50.784;4.630;2023-02-04T02:34:50;11.10;99.90
26655;DHT22;14278;50.784;4.630;2023-02-04T02:37:16;10.70;99.90
26655;DHT22;14278;50.784;4.630;2023-02-04T02:39:43;10.60;99.90
26655;DHT22;14278;50.784;4.630;2023-02-04T02:42:13;10.10;99.90
26655;DHT22;14278;50.784;4.630;2023-02-04T02:44:40;10.00;99.90
26655;DHT22;14278;50.784;4.630;2023-02-04T02:47:10;9.40;99.90
26655;DHT22;14278;50.784;4.630;2023-02-04T02:49:36;9.50;99.90
26655;DHT22;14278;50.784;4.630;2023-02-04T02:52:04;9.70;99.90
26655;DHT22;14278;50.784;4.630;2023-02-04T02:54:31;9.60;99.90
26655;DHT22;14278;50.784;4.630;2023-02-04T02:56:58;9.60;99.90
26655;DHT22;14278;50.784;4.630;2023-02-04T02:59:25;9.40;99.90
26655;DHT22;14278;50.784;4.630;2023-02-04T03:01:54;9.20;99.90
26655;DHT22;14278;50.784;4.630;2023-02-04T03:04:23;9.30;99.90
26655;DHT22;14278;50.784;4.630;2023-02-04T03:06:50;9.40;99.90
26655;DHT22;14278;50.784;4.630;2023-02-04T03:09:17;9.50;99.90
26655;DHT22;14278;50.784;4.630;2023-02-04T03:11:43;9.60;99.90
26655;DHT22;14278;50.784;4.630;2023-02-04T03:14:11;9.80;99.90
26655;DHT22;14278;50.784;4.630;2023-02-04T03:16:38;9.70;99.90
26655;DHT22;14278;50.784;4.630;2023-02-04T03:19:05;9.80;99.90
26655;DHT22;14278;50.784;4.630;2023-02-04T03:21:32;9.60;99.90
26655;DHT22;14278;50.784;4.630;2023-02-04T03:23:58;9.60;99.90
26655;DHT22;14278;50.784;4.630;2023-02-04T03:26:24;10.00;99.90
26655;DHT22;14278;50.784;4.630;2023-02-04T03:28:52;10.50;99.90
26655;DHT22;14278;50.784;4.630;2023-02-04T03:31:18;10.70;99.90
26655;DHT22;14278;50.784;4.630;2023-02-04T03:33:44;10.50;99.90
26655;DHT22;14278;50.784;4.630;2023-02-04T03:36:10;10.10;99.90
26655;DHT22;14278;50.784;4.630;2023-02-04T03:38:35;9.80;99.90
26655;DHT22;14278;50.784;4.630;2023-02-04T03:41:02;9.80;99.90
26655;DHT22;14278;50.784;4.630;2023-02-04T03:43:28;10.00;99.90
26655;DHT22;14278;50.784;4.630;2023-02-04T03:45:54;10.20;99.90
26655;DHT22;14278;50.784;4.630;2023-02-04T03:48:19;10.50;99.90
26655;DHT22;14278;50.784;4.630;2023-02-04T03:50:45;10.50;99.90
26655;DHT22;14278;50.784;4.630;2023-02-04T03:53:12;10.20;99.90
26655;DHT22;14278;50.784;4.630;2023-02-04T03:55:37;10.20;99.90
26655;DHT22;14278;50.784;4.630;2023-02-04T03:58:03;10.10;99.90
26655;DHT22;14278;50.784;4.630;2023-02-04T04:00:29;10.30;99.90
26655;DHT22;14278;50.784;4.630;2023-02-04T04:02:57;10.40;99.90
26655;DHT22;14278;50.784;4.630;2023-02-04T04:05:24;10.40;99.90
26655;DHT22;14278;50.784;4.630;2023-02-04T04:07:50;10.50;99.90
26655;DHT22;14278;50.784;4.630;2023-02-04T04:10:16;10.60;99.90
26655;DHT22;14278;50.784;4.630;2023-02-04T04:12:42;10.30;99.90
26655;DHT22;14278;50.784;4.630;2023-02-04T04:15:08;9.90;99.90
26655;DHT22;14278;50.784;4.630;2023-02-04T04:17:34;9.70;99.90
26655;DHT22;14278;50.784;4.630;2023-02-04T04:20:00;9.70;99.90
26655;DHT22;14278;50.784;4.630;2023-02-04T04:22:26;9.70;99.90
26655;DHT22;14278;50.784;4.630;2023-02-04T04:24:52;9.80;99.90
26655;DHT22;14278;50.784;4.630;2023-02-04T04:27:18;9.90;99.90
26655;DHT22;14278;50.784;4.630;2023-02-04T04:29:44;10.10;99.90
26655;DHT22;14278;50.784;4.630;2023-02-04T04:32:10;10.20;99.90
26655;DHT22;14278;50.784;4.630;2023-02-04T04:34:36;10.30;99.90
26655;DHT22;14278;50.784;4.630;2023-02-04T04:37:01;10.50;99.90
26655;DHT22;14278;50.784;4.630;2023-02-04T04:39:27;10.60;99.90
26655;DHT22;14278;50.784;4.630;2023-02-04T04:41:54;10.60;99.90
26655;DHT22;14278;50.784;4.630;2023-02-04T04:44:19;10.60;99.90
26655;DHT22;14278;50.784;4.630;2023-02-04T04:46:45;10.50;99.90
26655;DHT22;14278;50.784;4.630;2023-02-04T04:49:11;10.70;99.90
26655;DHT22;14278;50.784;4.630;2023-02-04T04:51:37;10.60;99.90
26655;DHT22;14278;50.784;4.630;2023-02-04T04:54:03;10.20;99.90
26655;DHT22;14278;50.784;4.630;2023-02-04T04:56:29;10.10;99.90
26655;DHT22;14278;50.784;4.630;2023-02-04T04:58:55;10.20;99.90
26655;DHT22;14278;50.784;4.630;2023-02-04T05:01:20;10.40;99.90
26655;DHT22;14278;50.784;4.630;2023-02-04T05:03:47;10.60;99.90
26655;DHT22;14278;50.784;4.630;2023-02-04T05:06:13;10.90;99.90
26655;DHT22;14278;50.784;4.630;2023-02-04T05:08:40;10.90;99.90
26655;DHT22;14278;50.784;4.630;2023-02-04T05:11:06;11.10;99.90
26655;DHT22;14278;50.784;4.630;2023-02-04T05:13:32;11.20;99.90
26655;DHT22;14278;50.784;4.630;2023-02-04T05:15:58;11.20;99.90
26655;DHT22;14278;50.784;4.630;2023-02-04T05:18:24;11.00;99.90
26655;DHT22;14278;50.784;4.630;2023-02-04T05:20:50;11.10;99.90
26655;DHT22;14278;50.784;4.630;2023-02-04T05:23:15;11.10;99.90
26655;DHT22;14278;50.784;4.630;2023-02-04T05:25:41;10.90;99.90
26655;DHT22;14278;50.784;4.630;2023-02-04T05:28:07;10.80;99.90
26655;DHT22;14278;50.784;4.630;2023-02-04T05:30:34;10.80;99.90
26655;DHT22;14278;50.784;4.630;2023-02-04T05:32:59;10.60;99.90
26655;DHT22;14278;50.784;4.630;2023-02-04T05:35:25;10.80;99.90
26655;DHT22;14278;50.784;4.630;2023-02-04T05:37:51;10.80;99.90
26655;DHT22;14278;50.784;4.630;2023-02-04T05:40:17;10.90;99.90
26655;DHT22;14278;50.784;4.630;2023-02-04T05:42:43;10.90;99.90
26655;DHT22;14278;50.784;4.630;2023-02-04T05:45:13;10.70;99.90
26655;DHT22;14278;50.784;4.630;2023-02-04T05:47:40;10.50;99.90
26655;DHT22;14278;50.784;4.630;2023-02-04T05:50:06;10.40;99.90
26655;DHT22;14278;50.784;4.630;2023-02-04T05:52:32;10.30;99.90
26655;DHT22;14278;50.784;4.630;2023-02-04T05:54:58;10.40;99.90
26655;DHT22;14278;50.784;4.630;2023-02-04T05:57:24;10.50;99.90
26655;DHT22;14278;50.784;4.630;2023-02-04T05:59:50;10.80;99.90
26655;DHT22;14278;50.784;4.630;2023-02-04T06:02:16;10.70;99.90
26655;DHT22;14278;50.784;4.630;2023-02-04T06:04:41;10.90;99.90
26655;DHT22;14278;50.784;4.630;2023-02-04T06:07:08;11.10;99.90
26655;DHT22;14278;50.784;4.630;2023-02-04T06:09:34;11.20;99.90
26655;DHT22;14278;50.784;4.630;2023-02-04T06:11:59;11.00;99.90
26655;DHT22;14278;50.784;4.630;2023-02-04T06:14:25;11.00;99.90
26655;DHT22;14278;50.784;4.630;2023-02-04T06:16:51;11.10;99.90
26655;DHT22;14278;50.784;4.630;2023-02-04T06:19:17;11.10;99.90
26655;DHT22;14278;50.784;4.630;2023-02-04T06:21:43;11.10;99.90
26655;DHT22;14278;50.784;4.630;2023-02-04T06:24:09;11.10;99.90
26655;DHT22;14278;50.784;4.630;2023-02-04T06:26:35;11.00;99.90
26655;DHT22;14278;50.784;4.630;2023-02-04T06:29:01;11.00;99.90
26655;DHT22;14278;50.784;4.630;2023-02-04T06:31:27;10.70;99.90
26655;DHT22;14278;50.784;4.630;2023-02-04T06:33:53;10.60;99.90
26655;DHT22;14278;50.784;4.630;2023-02-04T06:36:19;10.50;99.90
26655;DHT22;14278;50.784;4.630;2023-02-04T06:38:44;10.20;99.90
26655;DHT22;14278;50.784;4.630;2023-02-04T06:41:10;10.10;99.90
26655;DHT22;14278;50.784;4.630;2023-02-04T06:43:37;10.20;99.90
26655;DHT22;14278;50.784;4.630;2023-02-04T06:46:03;10.30;99.90
26655;DHT22;14278;50.784;4.630;2023-02-04T06:48:28;10.30;99.90
26655;DHT22;14278;50.784;4.630;2023-02-04T06:50:54;10.10;99.90
26655;DHT22;14278;50.784;4.630;2023-02-04T06:53:20;9.70;99.90
26655;DHT22;14278;50.784;4.630;2023-02-04T06:55:46;9.80;99.90
26655;DHT22;14278;50.784;4.630;2023-02-04T06:58:12;9.70;99.90
26655;DHT22;14278;50.784;4.630;2023-02-04T07:00:38;9.50;99.90
26655;DHT22;14278;50.784;4.630;2023-02-04T07:03:04;9.50;99.90
26655;DHT22;14278;50.784;4.630;2023-02-04T07:05:32;9.60;99.90
26655;DHT22;14278;50.784;4.630;2023-02-04T07:07:58;9.70;99.90
26655;DHT22;14278;50.784;4.630;2023-02-04T07:10:24;10.00;99.90
26655;DHT22;14278;50.784;4.630;2023-02-04T07:12:50;9.90;99.90
26655;DHT22;14278;50.784;4.630;2023-02-04T07:15:16;9.90;99.90
26655;DHT22;14278;50.784;4.630;2023-02-04T07:17:41;9.90;99.90
26655;DHT22;14278;50.784;4.630;2023-02-04T07:20:09;9.90;99.90
26655;DHT22;14278;50.784;4.630;2023-02-04T07:22:35;9.70;99.90
26655;DHT22;14278;50.784;4.630;2023-02-04T07:25:01;9.60;99.90
26655;DHT22;14278;50.784;4.630;2023-02-04T07:27:27;9.60;99.90
26655;DHT22;14278;50.784;4.630;2023-02-04T07:29:52;9.30;99.90
26655;DHT22;14278;50.784;4.630;2023-02-04T07:32:19;9.00;99.90
26655;DHT22;14278;50.784;4.630;2023-02-04T07:34:44;8.90;99.90
26655;DHT22;14278;50.784;4.630;2023-02-04T07:37:10;8.90;99.90
26655;DHT22;14278;50.784;4.630;2023-02-04T07:39:36;9.10;99.90
26655;DHT22;14278;50.784;4.630;2023-02-04T07:42:02;9.40;99.90
26655;DHT22;14278;50.784;4.630;2023-02-04T07:44:28;9.60;99.90
26655;DHT22;14278;50.784;4.630;2023-02-04T07:46:54;10.00;99.90
26655;DHT22;14278;50.784;4.630;2023-02-04T07:49:21;10.30;99.90
26655;DHT22;14278;50.784;4.630;2023-02-04T07:51:47;10.40;99.90
26655;DHT22;14278;50.784;4.630;2023-02-04T07:54:12;10.40;99.90
26655;DHT22;14278;50.784;4.630;2023-02-04T07:56:39;10.40;99.90
26655;DHT22;14278;50.784;4.630;2023-02-04T07:59:05;10.60;99.90
26655;DHT22;14278;50.784;4.630;2023-02-04T08:01:30;10.70;99.90
26655;DHT22;14278;50.784;4.630;2023-02-04T08:03:56;10.70;99.90
26655;DHT22;14278;50.784;4.630;2023-02-04T08:06:22;10.70;99.90
26655;DHT22;14278;50.784;4.630;2023-02-04T08:08:48;11.00;99.90
26655;DHT22;14278;50.784;4.630;2023-02-04T08:11:14;10.90;99.90
26655;DHT22;14278;50.784;4.630;2023-02-04T08:13:40;10.50;99.90
26655;DHT22;14278;50.784;4.630;2023-02-04T08:16:06;10.60;99.90
26655;DHT22;14278;50.784;4.630;2023-02-04T08:18:31;10.70;99.90
26655;DHT22;14278;50.784;4.630;2023-02-04T08:20:58;10.80;99.90
26655;DHT22;14278;50.784;4.630;2023-02-04T08:23:25;10.70;99.90
26655;DHT22;14278;50.784;4.630;2023-02-04T08:25:51;10.80;99.90
26655;DHT22;14278;50.784;4.630;2023-02-04T08:28:17;11.10;99.90
26655;DHT22;14278;50.784;4.630;2023-02-04T08:30:43;11.40;99.90
26655;DHT22;14278;50.784;4.630;2023-02-04T08:33:09;11.30;99.90
26655;DHT22;14278;50.784;4.630;2023-02-04T08:35:35;11.40;99.90
26655;DHT22;14278;50.784;4.630;2023-02-04T08:38:01;11.50;99.90
26655;DHT22;14278;50.784;4.630;2023-02-04T08:40:27;11.60;99.90
26655;DHT22;14278;50.784;4.630;2023-02-04T08:42:53;11.50;99.90
26655;DHT22;14278;50.784;4.630;2023-02-04T08:45:19;11.50;99.90
26655;DHT22;14278;50.784;4.630;2023-02-04T08:47:45;11.50;99.90
26655;DHT22;14278;50.784;4.630;2023-02-04T08:50:11;11.60;99.90
26655;DHT22;14278;50.784;4.630;2023-02-04T08:52:37;11.50;99.90
26655;DHT22;14278;50.784;4.630;2023-02-04T08:55:03;11.50;99.90
26655;DHT22;14278;50.784;4.630;2023-02-04T08:57:30;11.50;99.90
26655;DHT22;14278;50.784;4.630;2023-02-04T08:59:55;11.50;99.90
26655;DHT22;14278;50.784;4.630;2023-02-04T09:02:21;11.40;99.90
26655;DHT22;14278;50.784;4.630;2023-02-04T09:04:47;11.30;99.90
26655;DHT22;14278;50.784;4.630;2023-02-04T09:07:13;11.40;99.90
26655;DHT22;14278;50.784;4.630;2023-02-04T09:09:39;11.40;99.90
26655;DHT22;14278;50.784;4.630;2023-02-04T09:12:05;11.70;99.90
26655;DHT22;14278;50.784;4.630;2023-02-04T09:14:31;11.40;99.90
26655;DHT22;14278;50.784;4.630;2023-02-04T09:16:57;11.30;99.90
26655;DHT22;14278;50.784;4.630;2023-02-04T09:19:22;11.60;99.90
26655;DHT22;14278;50.784;4.630;2023-02-04T09:21:53;11.10;99.90
26655;DHT22;14278;50.784;4.630;2023-02-04T09:24:19;11.30;99.90
26655;DHT22;14278;50.784;4.630;2023-02-04T09:26:48;11.00;99.90
26655;DHT22;14278;50.784;4.630;2023-02-04T09:29:14;10.80;99.90
26655;DHT22;14278;50.784;4.630;2023-02-04T09:31:39;10.90;99.90
26655;DHT22;14278;50.784;4.630;2023-02-04T09:34:06;10.70;99.90
26655;DHT22;14278;50.784;4.630;2023-02-04T09:36:32;11.10;99.90
26655;DHT22;14278;50.784;4.630;2023-02-04T09:39:03;11.00;99.90
26655;DHT22;14278;50.784;4.630;2023-02-04T09:41:31;10.70;99.90
26655;DHT22;14278;50.784;4.630;2023-02-04T09:43:57;10.70;99.90
26655;DHT22;14278;50.784;4.630;2023-02-04T09:46:26;10.60;99.90
26655;DHT22;14278;50.784;4.630;2023-02-04T09:48:57;10.60;99.90
26655;DHT22;14278;50.784;4.630;2023-02-04T09:51:26;11.00;99.90
26655;DHT22;14278;50.784;4.630;2023-02-04T09:53:57;10.60;99.90
26655;DHT22;14278;50.784;4.630;2023-02-04T09:56:26;10.40;99.90
26655;DHT22;14278;50.784;4.630;2023-02-04T09:58:53;10.70;99.90
26655;DHT22;14278;50.784;4.630;2023-02-04T10:01:19;11.10;99.90
26655;DHT22;14278;50.784;4.630;2023-02-04T10:03:47;11.20;99.90
26655;DHT22;14278;50.784;4.630;2023-02-04T10:06:19;11.10;99.90
26655;DHT22;14278;50.784;4.630;2023-02-04T10:08:46;11.00;99.90
26655;DHT22;14278;50.784;4.630;2023-02-04T10:11:14;11.60;99.90
26655;DHT22;14278;50.784;4.630;2023-02-04T10:13:46;11.70;99.90
26655;DHT22;14278;50.784;4.630;2023-02-04T10:16:24;12.10;99.90
26655;DHT22;14278;50.784;4.630;2023-02-04T10:19:05;11.50;99.90
26655;DHT22;14278;50.784;4.630;2023-02-04T10:21:34;11.60;99.90
26655;DHT22;14278;50.784;4.630;2023-02-04T10:24:06;11.60;99.90
26655;DHT22;14278;50.784;4.630;2023-02-04T10:26:38;11.90;99.90
26655;DHT22;14278;50.784;4.630;2023-02-04T10:29:12;12.20;99.90
26655;DHT22;14278;50.784;4.630;2023-02-04T10:31:41;12.30;99.90
26655;DHT22;14278;50.784;4.630;2023-02-04T10:34:15;12.40;99.90
26655;DHT22;14278;50.784;4.630;2023-02-04T10:36:43;12.10;99.90
26655;DHT22;14278;50.784;4.630;2023-02-04T10:39:21;11.60;99.90
26655;DHT22;14278;50.784;4.630;2023-02-04T10:41:49;12.00;99.90
26655;DHT22;14278;50.784;4.630;2023-02-04T10:44:18;12.30;99.90
26655;DHT22;14278;50.784;4.630;2023-02-04T10:46:45;12.40;99.90
26655;DHT22;14278;50.784;4.630;2023-02-04T10:49:20;12.50;99.90
26655;DHT22;14278;50.784;4.630;2023-02-04T10:51:47;12.90;99.90
26655;DHT22;14278;50.784;4.630;2023-02-04T10:54:14;12.80;99.90
26655;DHT22;14278;50.784;4.630;2023-02-04T11:00:04;12.10;99.90
26655;DHT22;14278;50.784;4.630;2023-02-04T11:05:15;12.10;99.90
26655;DHT22;14278;50.784;4.630;2023-02-04T11:07:41;12.00;99.90
26655;DHT22;14278;50.784;4.630;2023-02-04T11:10:15;12.00;99.90
26655;DHT22;14278;50.784;4.630;2023-02-04T11:15:40;12.40;99.90
26655;DHT22;14278;50.784;4.630;2023-02-04T11:18:09;12.40;99.90
26655;DHT22;14278;50.784;4.630;2023-02-04T11:20:36;12.30;99.90
26655;DHT22;14278;50.784;4.630;2023-02-04T11:26:01;12.80;99.90
26655;DHT22;14278;50.784;4.630;2023-02-04T11:28:27;12.30;99.90
26655;DHT22;14278;50.784;4.630;2023-02-04T11:31:00;12.50;99.90
26655;DHT22;14278;50.784;4.630;2023-02-04T11:33:38;12.40;99.90
26655;DHT22;14278;50.784;4.630;2023-02-04T11:36:08;12.70;99.90
26655;DHT22;14278;50.784;4.630;2023-02-04T11:38:34;12.50;99.90
26655;DHT22;14278;50.784;4.630;2023-02-04T11:41:00;13.00;99.90
26655;DHT22;14278;50.784;4.630;2023-02-04T11:43:26;13.30;99.90
26655;DHT22;14278;50.784;4.630;2023-02-04T11:46:15;13.40;99.90
26655;DHT22;14278;50.784;4.630;2023-02-04T11:48:42;13.30;99.90
26655;DHT22;14278;50.784;4.630;2023-02-04T11:51:17;13.50;99.90
26655;DHT22;14278;50.784;4.630;2023-02-04T11:53:50;13.60;99.90
26655;DHT22;14278;50.784;4.630;2023-02-04T11:56:20;13.80;99.90
26655;DHT22;14278;50.784;4.630;2023-02-04T11:58:47;13.80;99.90
26655;DHT22;14278;50.784;4.630;2023-02-04T12:01:21;13.60;99.90
26655;DHT22;14278;50.784;4.630;2023-02-04T12:03:55;13.70;99.90
26655;DHT22;14278;50.784;4.630;2023-02-04T12:06:26;13.70;99.90
26655;DHT22;14278;50.784;4.630;2023-02-04T12:08:52;13.80;99.90
26655;DHT22;14278;50.784;4.630;2023-02-04T12:11:29;13.30;99.90
26655;DHT22;14278;50.784;4.630;2023-02-04T12:13:57;13.10;99.90
26655;DHT22;14278;50.784;4.630;2023-02-04T12:16:24;12.80;99.90
26655;DHT22;14278;50.784;4.630;2023-02-04T12:18:50;12.90;99.90
26655;DHT22;14278;50.784;4.630;2023-02-04T12:21:17;13.20;99.90
26655;DHT22;14278;50.784;4.630;2023-02-04T12:23:46;13.40;99.90
26655;DHT22;14278;50.784;4.630;2023-02-04T12:26:12;13.00;99.90
26655;DHT22;14278;50.784;4.630;2023-02-04T12:28:38;13.10;99.90
26655;DHT22;14278;50.784;4.630;2023-02-04T12:31:03;13.30;99.90
26655;DHT22;14278;50.784;4.630;2023-02-04T12:33:29;13.40;99.90
26655;DHT22;14278;50.784;4.630;2023-02-04T12:35:58;13.20;99.90
26655;DHT22;14278;50.784;4.630;2023-02-04T12:38:24;13.20;99.90
26655;DHT22;14278;50.784;4.630;2023-02-04T12:40:52;13.60;99.90
26655;DHT22;14278;50.784;4.630;2023-02-04T12:43:17;13.60;99.90
26655;DHT22;14278;50.784;4.630;2023-02-04T12:45:43;13.40;99.90
26655;DHT22;14278;50.784;4.630;2023-02-04T12:48:11;13.10;99.90
26655;DHT22;14278;50.784;4.630;2023-02-04T12:50:37;13.10;99.90
26655;DHT22;14278;50.784;4.630;2023-02-04T12:53:03;12.90;99.90
26655;DHT22;14278;50.784;4.630;2023-02-04T12:55:31;12.60;99.90
26655;DHT22;14278;50.784;4.630;2023-02-04T12:57:57;12.40;99.90
26655;DHT22;14278;50.784;4.630;2023-02-04T13:00:23;12.60;99.90
26655;DHT22;14278;50.784;4.630;2023-02-04T13:02:50;12.80;99.90
26655;DHT22;14278;50.784;4.630;2023-02-04T13:05:16;12.90;99.90
26655;DHT22;14278;50.784;4.630;2023-02-04T13:07:42;12.90;99.90
26655;DHT22;14278;50.784;4.630;2023-02-04T13:10:09;12.80;99.90
26655;DHT22;14278;50.784;4.630;2023-02-04T13:12:35;13.50;99.90
26655;DHT22;14278;50.784;4.630;2023-02-04T13:15:02;13.60;99.90
26655;DHT22;14278;50.784;4.630;2023-02-04T13:17:28;14.00;99.90
26655;DHT22;14278;50.784;4.630;2023-02-04T13:19:54;14.50;99.90
26655;DHT22;14278;50.784;4.630;2023-02-04T13:22:20;14.60;99.90
26655;DHT22;14278;50.784;4.630;2023-02-04T13:24:45;14.10;99.90
26655;DHT22;14278;50.784;4.630;2023-02-04T13:27:12;13.70;99.90
26655;DHT22;14278;50.784;4.630;2023-02-04T13:29:39;13.70;99.90
26655;DHT22;14278;50.784;4.630;2023-02-04T13:32:05;13.40;99.90
26655;DHT22;14278;50.784;4.630;2023-02-04T13:34:31;13.10;99.90
26655;DHT22;14278;50.784;4.630;2023-02-04T13:36:57;12.90;99.90
26655;DHT22;14278;50.784;4.630;2023-02-04T13:39:24;13.20;99.90
26655;DHT22;14278;50.784;4.630;2023-02-04T13:41:49;12.80;99.90
26655;DHT22;14278;50.784;4.630;2023-02-04T13:44:15;12.50;99.90
26655;DHT22;14278;50.784;4.630;2023-02-04T13:46:41;12.80;99.90
26655;DHT22;14278;50.784;4.630;2023-02-04T13:49:07;12.80;99.90
26655;DHT22;14278;50.784;4.630;2023-02-04T13:51:33;12.80;99.90
26655;DHT22;14278;50.784;4.630;2023-02-04T13:53:59;12.80;99.90
26655;DHT22;14278;50.784;4.630;2023-02-04T13:56:26;13.00;99.90
26655;DHT22;14278;50.784;4.630;2023-02-04T13:58:52;13.00;99.90
26655;DHT22;14278;50.784;4.630;2023-02-04T14:01:18;13.20;99.90
26655;DHT22;14278;50.784;4.630;2023-02-04T14:03:44;13.60;99.90
26655;DHT22;14278;50.784;4.630;2023-02-04T14:06:11;13.60;99.90
26655;DHT22;14278;50.784;4.630;2023-02-04T14:08:37;13.70;99.90
26655;DHT22;14278;50.784;4.630;2023-02-04T14:11:03;14.00;99.90
26655;DHT22;14278;50.784;4.630;2023-02-04T14:13:29;14.00;99.90
26655;DHT22;14278;50.784;4.630;2023-02-04T14:15:56;13.70;99.90
26655;DHT22;14278;50.784;4.630;2023-02-04T14:18:22;13.30;99.90
26655;DHT22;14278;50.784;4.630;2023-02-04T14:20:47;13.40;99.90
26655;DHT22;14278;50.784;4.630;2023-02-04T14:23:13;13.70;99.90
26655;DHT22;14278;50.784;4.630;2023-02-04T14:25:39;13.10;99.90
26655;DHT22;14278;50.784;4.630;2023-02-04T14:28:06;13.00;99.90
26655;DHT22;14278;50.784;4.630;2023-02-04T22:47:46;8.50;99.90
26655;DHT22;14278;50.784;4.630;2023-02-04T22:50:12;8.50;99.90
26655;DHT22;14278;50.784;4.630;2023-02-04T22:52:37;8.60;99.90
26655;DHT22;14278;50.784;4.630;2023-02-04T22:55:03;8.70;99.90
26655;DHT22;14278;50.784;4.630;2023-02-04T22:57:29;9.00;99.90
26655;DHT22;14278;50.784;4.630;2023-02-04T22:59:56;9.20;99.90
26655;DHT22;14278;50.784;4.630;2023-02-04T23:02:21;9.20;99.90
26655;DHT22;14278;50.784;4.630;2023-02-04T23:04:47;9.40;99.90
26655;DHT22;14278;50.784;4.630;2023-02-04T23:07:13;9.70;99.90
26655;DHT22;14278;50.784;4.630;2023-02-04T23:09:39;9.60;99.90
26655;DHT22;14278;50.784;4.630;2023-02-04T23:12:06;9.80;99.90
26655;DHT22;14278;50.784;4.630;2023-02-04T23:14:39;9.80;99.90
26655;DHT22;14278;50.784;4.630;2023-02-04T23:17:05;9.70;99.90
26655;DHT22;14278;50.784;4.630;2023-02-04T23:19:31;9.70;99.90
26655;DHT22;14278;50.784;4.630;2023-02-04T23:21:57;9.70;99.90
26655;DHT22;14278;50.784;4.630;2023-02-04T23:24:23;10.00;99.90
26655;DHT22;14278;50.784;4.630;2023-02-04T23:26:49;10.20;99.90
26655;DHT22;14278;50.784;4.630;2023-02-04T23:29:15;10.10;99.90
26655;DHT22;14278;50.784;4.630;2023-02-04T23:31:40;9.90;99.90
26655;DHT22;14278;50.784;4.630;2023-02-04T23:34:06;10.10;99.90
26655;DHT22;14278;50.784;4.630;2023-02-04T23:36:32;10.20;99.90
26655;DHT22;14278;50.784;4.630;2023-02-04T23:39:01;10.50;99.90
26655;DHT22;14278;50.784;4.630;2023-02-04T23:41:27;10.30;99.90
26655;DHT22;14278;50.784;4.630;2023-02-04T23:43:53;10.10;99.90
26655;DHT22;14278;50.784;4.630;2023-02-04T23:46:19;10.20;99.90
26655;DHT22;14278;50.784;4.630;2023-02-04T23:48:45;10.10;99.90
26655;DHT22;14278;50.784;4.630;2023-02-04T23:51:11;10.10;99.90
26655;DHT22;14278;50.784;4.630;2023-02-04T23:53:37;10.10;99.90
26655;DHT22;14278;50.784;4.630;2023-02-04T23:56:03;9.90;99.90
26655;DHT22;14278;50.784;4.630;2023-02-04T23:58:29;9.80;99.90
